Bettles Airport
PABT : now visible

Airfield :











YOU CAN JOIN US ON...

 
LOGIN :

Register | Disclaimer

   EN    FR    IT 

 









Legend :    VFR   Marginal VFR   IFR   Intensive IFR   Very Intensive IFR
Visi :
Ceiling :
>= 8 km
>= 3000ft
5 to 8 km
1000 to 3000 ft
1500m to 5 km
500 to 1000 ft
800 to 1500m
200 to 500 ft
< 800m
< 200 ft
Symbols :   Thunderstorms  Fog  Heavy snow  Heavy precipitations  Wind > 20 kt






- Airport Elevation : 647 ft
- IATA code : BTT


PABT - Bettles

CURRENT METAR :
  • 241653Z 34006KT 10SM SCT030 BKN055 M33/M36 A3056 RMK AO2 SNB35E53 SLP388 T13281361

EXPIRED METARs :
  • 241553Z 32007KT 10SM FEW031 FEW060 M34/M37 A3055 RMK AO2 SNE1457 SLP383 T13391372
  • 241453Z 33007KT 9SM -SN FEW024 SCT031 SCT060 M33/M36 A3055 RMK AO2 SNB48 SLP379 PCPN VRY LGT T13281361 53012
  • 241353Z 34005KT 10SM FEW029 SCT036 M33/M36 A3052 RMK AO2 SLP371 T13281361

TAF PABT
Valid from the 24 at 12:00 until the 25 at 12:00 UTC


241142Z 2412/2512 34005KT P6SM SCT035
FM241500 34005KT P6SM -SN BKN035



MET'MAP, your aeronautical weather chart ! - Copyright ORBIFLY December 2007 - Disclaimer

ORBIFLY MET'MAP TEAM :

Programming & Development : Alexandra Zaïnal
Concept & original design : Baudouin d'Aumeries
Assistance for programming : Marc-Olivier Méhu
Technical & hardware support : Manuel Goepfert

Contact : metmap@orbifly.com




SOURCES & CREDITS :

   NOAA       Earth
Advisory